Saturday, February 24, 2018, 10:30 PM EST
Back to Local

KOXB, Ocean City Municipal Airport

Location: Berlin, MD, United States Lat: 38.317
Local Time: 10:30 PM EST ( 3:30 GMT) Lon: -75.117
Time Zone: US/Eastern Elev: 13 ft

Show me the last for .
Show Decoded

2018-02-24 22:22 METAR KOXB 250322Z AUTO 09007KT 10SM OVC009 07/07 A3014 RMK AO2 CIG 007V011
                 T00720067 =
2018-02-24 21:53 METAR KOXB 250253Z AUTO 06008KT 10SM OVC011 08/07 A3015 RMK AO2 SLP208 T00780067
                 50003 =
2018-02-24 20:53 METAR KOXB 250153Z AUTO 06008KT 10SM OVC012 08/07 A3015 RMK AO2 SLP209 T00780067
                 =
2018-02-24 20:11 METAR KOXB 250111Z AUTO 06008KT 10SM OVC011 07/07 A3016 RMK AO2 T00720072 =
2018-02-24 19:53 METAR KOXB 250053Z AUTO 05010KT 10SM SCT002 OVC009 07/07 A3016 RMK AO2 CIG
                 007V011 SLP213 T00720072 =
2018-02-24 19:40 METAR KOXB 250040Z AUTO 05009KT 3SM BR BKN002 OVC007 08/08 A3016 RMK AO2
                 T00780078 =
2018-02-24 19:10 METAR KOXB 250010Z AUTO 04010KT 1SM BR OVC002 07/07 A3015 RMK AO2 T00720072 =
2018-02-24 19:01 METAR KOXB 250001Z AUTO 04008KT 3/4SM BR OVC002 07/07 A3014 RMK AO2 T00720072 =
2018-02-24 18:53 METAR KOXB 242353Z AUTO 04008KT 1SM BR OVC002 07/07 A3014 RMK AO2 SLP205 60000
                 T00720072 10100 20072 50003 =
2018-02-24 18:49 METAR KOXB 242349Z AUTO 04010KT 1 1/4SM BR OVC002 07/07 A3014 RMK AO2 =
2018-02-24 18:42 METAR KOXB 242342Z AUTO 04007KT 2SM BR OVC002 07/07 A3014 RMK AO2 T00720072 =
2018-02-24 18:11 METAR KOXB 242311Z AUTO 04008KT 1SM BR OVC002 07/07 A3014 RMK AO2 T00720072 =
2018-02-24 17:53 METAR KOXB 242253Z AUTO 05008KT 3/4SM BR VV003 07/07 A3013 RMK AO2 SLP203
                 T00720072 =
2018-02-24 17:51 METAR KOXB 242251Z AUTO 06007KT 1/2SM FG VV003 07/07 A3013 RMK AO2 =
2018-02-24 16:53 METAR KOXB 242153Z AUTO 05009KT 1/4SM FG OVC002 09/09 A3013 RMK AO2 SLP201
                 T00890089 =
2018-02-24 16:27 METAR KOXB 242127Z AUTO 04006KT 1/2SM FG OVC002 10/10 A3013 RMK AO2 T01000100 =
2018-02-24 16:17 METAR KOXB 242117Z AUTO 03007KT 1SM BR OVC002 10/10 A3013 RMK AO2 T01000100 =
2018-02-24 15:53 METAR KOXB 242053Z AUTO 02003KT 1/2SM FG VV003 10/10 A3013 RMK AO2 RAB25E38
                 SLP202 P0000 60000 T01000100 55001 =
2018-02-24 15:33 METAR KOXB 242033Z AUTO 07004KT 1/4SM -RA FG VV003 10/10 A3012 RMK AO2 RAB25
                 P0000 T01000100 =
2018-02-24 15:26 METAR KOXB 242026Z AUTO 08004KT 1/2SM -RA FG VV003 10/10 A3012 RMK AO2 RAB25
                 P0000 T01000100 =
2018-02-24 14:52 METAR KOXB 241952Z AUTO 00000KT 1/4SM FG OVC003 09/09 A3011 RMK AO2 SLP197
                 T00940094 =
2018-02-24 14:51 METAR KOXB 241951Z AUTO 11003KT 1/4SM FG OVC003 09/09 A3011 RMK AO2 =
2018-02-24 14:44 METAR KOXB 241944Z AUTO 11003KT 1 1/4SM BR OVC003 09/09 A3011 RMK AO2 VIS 1/2V4
                 T00940094 =
2018-02-24 13:53 METAR KOXB 241853Z AUTO 00000KT 3SM BR OVC003 09/09 A3012 RMK AO2 SLP199
                 T00940094 =
2018-02-24 12:53 METAR KOXB 241753Z AUTO 00000KT 4SM BR OVC003 09/09 A3013 RMK AO2 SLP203
                 T00890089 10106 20061 58023 =
2018-02-24 12:49 METAR KOXB 241749Z AUTO 18004KT 3SM BR OVC003 09/09 A3013 RMK AO2 =
2018-02-24 12:32 METAR KOXB 241732Z AUTO 17004KT 1 3/4SM BR OVC003 09/09 A3014 RMK AO2 VIS 1
                 1/4V3 T00890089 =
2018-02-24 12:06 METAR KOXB 241706Z AUTO 19005KT 1/2SM FG OVC003 09/09 A3016 RMK AO2 T00890089 =
2018-02-24 11:57 METAR KOXB 241657Z AUTO 19007KT 1 1/2SM BR OVC003 09/09 A3016 RMK AO2 T00940094
                 =
2018-02-24 11:53 METAR KOXB 241653Z AUTO 19005KT 5SM BR OVC003 10/10 A3016 RMK AO2 SLP213
                 T01000100 =
2018-02-24 11:31 METAR KOXB 241631Z AUTO 00000KT 3SM BR OVC003 10/10 A3017 RMK AO2 T01000100 =
2018-02-24 11:22 METAR KOXB 241622Z AUTO 11003KT 1 3/4SM BR OVC003 10/10 A3017 RMK AO2 T01000100
                 =
2018-02-24 11:16 METAR KOXB 241616Z AUTO 00000KT 3SM BR OVC003 11/11 A3017 RMK AO2 T01060106 =
2018-02-24 11:08 METAR KOXB 241608Z AUTO 00000KT 1 1/4SM BR OVC002 09/09 A3017 RMK AO2 T00940094
                 =
2018-02-24 10:53 METAR KOXB 241553Z AUTO 19003KT 1/2SM FG OVC002 09/09 A3018 RMK AO2 SLP219
                 T00940094 =
2018-02-24 10:31 METAR KOXB 241531Z AUTO 00000KT 1/2SM FG VV003 08/08 A3018 RMK AO2 T00830083 =
2018-02-24 09:53 METAR KOXB 241453Z AUTO 21004KT 1/4SM FG VV003 07/07 A3020 RMK AO2 SLP225
                 T00720072 58002 =
2018-02-24 08:53 METAR KOXB 241353Z AUTO 00000KT 1/4SM FG VV003 07/07 A3020 RMK AO2 SLP226
                 T00670067 =
2018-02-24 07:53 METAR KOXB 241253Z AUTO 00000KT 1/4SM FG VV003 07/07 A3021 RMK AO2 SLP228
                 T00670067 =
2018-02-24 07:09 METAR KOXB 241209Z AUTO 19004KT 1/4SM FG VV003 06/06 A3020 RMK AO2 T00610061 =
2018-02-24 06:53 METAR KOXB 241153Z AUTO 18003KT 1/2SM FG VV003 07/07 A3020 RMK AO2 SLP227 70003
                 T00670067 10089 20061 55003 =
2018-02-24 05:53 METAR KOXB 241053Z AUTO 21004KT 1/2SM FG VV003 06/06 A3020 RMK AO2 SLP225
                 T00610061 =
2018-02-24 04:53 METAR KOXB 240953Z AUTO 19005KT 1/2SM FG VV003 07/07 A3020 RMK AO2 SLP225
                 T00670067 =
2018-02-24 04:00 METAR KOXB 240900Z AUTO 00000KT 1/2SM FG VV003 07/07 A3021 RMK AO2 T00720072 =
2018-02-24 03:53 METAR KOXB 240853Z AUTO 19003KT 1/4SM FG VV003 07/07 A3021 RMK AO2 SLP230
                 T00720072 58009 =
2018-02-24 02:53 METAR KOXB 240753Z AUTO 22004KT 1/2SM FG VV002 09/09 A3022 RMK AO2 SLP234
                 T00890089 =
2018-02-24 02:16 METAR KOXB 240716Z AUTO 27003KT 3/4SM BR VV003 09/09 A3024 RMK AO2 T00890089 =
2018-02-24 01:53 METAR KOXB 240653Z AUTO 23005KT 1 1/2SM BR OVC002 09/09 A3024 RMK AO2 SLP239
                 T00890089 =
2018-02-24 01:49 METAR KOXB 240649Z AUTO 23006KT 1 1/2SM BR OVC002 09/09 A3024 RMK AO2 =
2018-02-24 01:32 METAR KOXB 240632Z AUTO 26005KT 2SM BR OVC002 09/09 A3025 RMK AO2 T00890089 =
2018-02-24 01:02 METAR KOXB 240602Z AUTO 26006KT 3SM BR OVC002 09/09 A3026 RMK AO2 T00890089 =
2018-02-24 00:53 METAR KOXB 240553Z AUTO 25005KT 1 3/4SM BR OVC002 09/09 A3026 RMK AO2 SLP248
                 T00890089 10089 20061 56015 =
2018-02-24 00:03 METAR KOXB 240503Z AUTO 25007KT 2 1/2SM BR OVC003 09/09 A3027 RMK AO2 T00890089
                 =
2018-02-23 23:53 METAR KOXB 240453Z AUTO 26007KT 3SM BR OVC003 09/09 A3027 RMK AO2 SLP251
                 T00890089 400890056 =
2018-02-23 22:53 METAR KOXB 240353Z AUTO 26005KT 6SM BR OVC003 09/09 A3029 RMK AO2 SLP256
                 T00890089 =

Support USWX by starting your Amazon purchase here.